sensor_id;sensor_type;location;lat;lon;timestamp;temperature;humidity
36374;DHT22;22399;51.346;12.372;2023-07-31T00:00:00;16.20;99.90
36374;DHT22;22399;51.346;12.372;2023-07-31T00:02:30;16.20;99.90
36374;DHT22;22399;51.346;12.372;2023-07-31T00:05:01;16.20;99.90
36374;DHT22;22399;51.346;12.372;2023-07-31T00:07:29;16.30;99.90
36374;DHT22;22399;51.346;12.372;2023-07-31T00:09:58;16.30;99.90
36374;DHT22;22399;51.346;12.372;2023-07-31T00:12:27;16.30;99.90
36374;DHT22;22399;51.346;12.372;2023-07-31T00:14:55;16.30;99.90
36374;DHT22;22399;51.346;12.372;2023-07-31T00:17:24;16.40;99.90
36374;DHT22;22399;51.346;12.372;2023-07-31T00:19:52;16.40;99.90
36374;DHT22;22399;51.346;12.372;2023-07-31T00:22:22;16.40;99.90
36374;DHT22;22399;51.346;12.372;2023-07-31T00:24:50;16.40;99.90
36374;DHT22;22399;51.346;12.372;2023-07-31T00:27:18;16.40;99.90
36374;DHT22;22399;51.346;12.372;2023-07-31T00:29:47;16.40;99.90
36374;DHT22;22399;51.346;12.372;2023-07-31T00:32:15;16.40;99.90
36374;DHT22;22399;51.346;12.372;2023-07-31T00:34:43;16.40;99.90
36374;DHT22;22399;51.346;12.372;2023-07-31T00:37:12;16.40;99.90
36374;DHT22;22399;51.346;12.372;2023-07-31T00:39:42;16.40;99.90
36374;DHT22;22399;51.346;12.372;2023-07-31T00:42:10;16.40;99.90
36374;DHT22;22399;51.346;12.372;2023-07-31T00:44:39;16.40;99.90
36374;DHT22;22399;51.346;12.372;2023-07-31T00:47:07;16.40;99.90
36374;DHT22;22399;51.346;12.372;2023-07-31T00:49:36;16.40;99.90
36374;DHT22;22399;51.346;12.372;2023-07-31T00:52:05;16.40;99.90
36374;DHT22;22399;51.346;12.372;2023-07-31T00:54:34;16.50;99.90
36374;DHT22;22399;51.346;12.372;2023-07-31T00:57:04;16.50;99.90
36374;DHT22;22399;51.346;12.372;2023-07-31T00:59:34;16.50;99.90
36374;DHT22;22399;51.346;12.372;2023-07-31T01:02:04;16.60;99.90
36374;DHT22;22399;51.346;12.372;2023-07-31T01:04:33;16.50;99.90
36374;DHT22;22399;51.346;12.372;2023-07-31T01:07:11;16.60;99.90
36374;DHT22;22399;51.346;12.372;2023-07-31T01:09:45;16.60;99.90
36374;DHT22;22399;51.346;12.372;2023-07-31T01:12:17;16.70;99.90
36374;DHT22;22399;51.346;12.372;2023-07-31T01:14:52;16.70;99.90
36374;DHT22;22399;51.346;12.372;2023-07-31T01:17:21;16.70;99.90
36374;DHT22;22399;51.346;12.372;2023-07-31T01:19:50;16.70;99.90
36374;DHT22;22399;51.346;12.372;2023-07-31T01:22:34;16.70;99.90
36374;DHT22;22399;51.346;12.372;2023-07-31T01:25:16;16.70;99.90
36374;DHT22;22399;51.346;12.372;2023-07-31T01:27:56;16.70;99.90
36374;DHT22;22399;51.346;12.372;2023-07-31T01:30:32;16.70;99.90
36374;DHT22;22399;51.346;12.372;2023-07-31T01:33:03;16.70;99.90
36374;DHT22;22399;51.346;12.372;2023-07-31T01:35:34;16.70;99.90
36374;DHT22;22399;51.346;12.372;2023-07-31T01:38:04;16.70;99.90
36374;DHT22;22399;51.346;12.372;2023-07-31T01:40:33;16.70;99.90
36374;DHT22;22399;51.346;12.372;2023-07-31T01:43:03;16.60;99.90
36374;DHT22;22399;51.346;12.372;2023-07-31T01:45:31;16.60;99.90
36374;DHT22;22399;51.346;12.372;2023-07-31T01:48:00;16.60;99.90
36374;DHT22;22399;51.346;12.372;2023-07-31T01:50:28;16.60;99.90
36374;DHT22;22399;51.346;12.372;2023-07-31T01:52:57;16.50;99.90
36374;DHT22;22399;51.346;12.372;2023-07-31T01:55:25;16.40;99.90
36374;DHT22;22399;51.346;12.372;2023-07-31T01:57:54;16.30;99.90
36374;DHT22;22399;51.346;12.372;2023-07-31T02:00:23;16.20;99.90
36374;DHT22;22399;51.346;12.372;2023-07-31T02:02:52;16.10;99.90
36374;DHT22;22399;51.346;12.372;2023-07-31T02:05:20;16.00;99.90
36374;DHT22;22399;51.346;12.372;2023-07-31T02:07:48;16.00;99.90
36374;DHT22;22399;51.346;12.372;2023-07-31T02:10:16;16.00;99.90
36374;DHT22;22399;51.346;12.372;2023-07-31T02:12:45;16.10;99.90
36374;DHT22;22399;51.346;12.372;2023-07-31T02:15:13;16.10;99.90
36374;DHT22;22399;51.346;12.372;2023-07-31T02:17:43;16.10;99.90
36374;DHT22;22399;51.346;12.372;2023-07-31T02:20:11;16.10;99.90
36374;DHT22;22399;51.346;12.372;2023-07-31T02:22:40;16.10;99.90
36374;DHT22;22399;51.346;12.372;2023-07-31T02:25:08;16.20;99.90
36374;DHT22;22399;51.346;12.372;2023-07-31T02:27:36;16.20;99.90
36374;DHT22;22399;51.346;12.372;2023-07-31T02:30:05;16.20;99.90
36374;DHT22;22399;51.346;12.372;2023-07-31T02:32:34;16.20;99.90
36374;DHT22;22399;51.346;12.372;2023-07-31T02:35:04;16.20;99.90
36374;DHT22;22399;51.346;12.372;2023-07-31T02:37:34;16.30;99.90
36374;DHT22;22399;51.346;12.372;2023-07-31T02:40:02;16.30;99.90
36374;DHT22;22399;51.346;12.372;2023-07-31T02:42:30;16.30;99.90
36374;DHT22;22399;51.346;12.372;2023-07-31T02:44:59;16.30;99.90
36374;DHT22;22399;51.346;12.372;2023-07-31T02:47:27;16.30;99.90
36374;DHT22;22399;51.346;12.372;2023-07-31T02:49:56;16.30;99.90
36374;DHT22;22399;51.346;12.372;2023-07-31T02:52:26;16.30;99.90
36374;DHT22;22399;51.346;12.372;2023-07-31T02:54:54;16.30;99.90
36374;DHT22;22399;51.346;12.372;2023-07-31T02:57:23;16.30;99.90
36374;DHT22;22399;51.346;12.372;2023-07-31T02:59:51;16.30;99.90
36374;DHT22;22399;51.346;12.372;2023-07-31T03:02:20;16.30;99.90
36374;DHT22;22399;51.346;12.372;2023-07-31T03:04:48;16.30;99.90
36374;DHT22;22399;51.346;12.372;2023-07-31T03:07:17;16.30;99.90
36374;DHT22;22399;51.346;12.372;2023-07-31T03:09:47;16.30;99.90
36374;DHT22;22399;51.346;12.372;2023-07-31T03:12:15;16.30;99.90
36374;DHT22;22399;51.346;12.372;2023-07-31T03:14:43;16.30;99.90
36374;DHT22;22399;51.346;12.372;2023-07-31T03:17:12;16.30;99.90
36374;DHT22;22399;51.346;12.372;2023-07-31T03:19:40;16.30;99.90
36374;DHT22;22399;51.346;12.372;2023-07-31T03:22:08;16.30;99.90
36374;DHT22;22399;51.346;12.372;2023-07-31T03:24:37;16.30;99.90
36374;DHT22;22399;51.346;12.372;2023-07-31T03:27:07;16.30;99.90
36374;DHT22;22399;51.346;12.372;2023-07-31T03:29:35;16.30;99.90
36374;DHT22;22399;51.346;12.372;2023-07-31T03:32:05;16.20;99.90
36374;DHT22;22399;51.346;12.372;2023-07-31T03:34:33;16.20;99.90
36374;DHT22;22399;51.346;12.372;2023-07-31T03:37:01;16.20;99.90
36374;DHT22;22399;51.346;12.372;2023-07-31T03:39:32;16.20;99.90
36374;DHT22;22399;51.346;12.372;2023-07-31T03:42:01;16.10;99.90
36374;DHT22;22399;51.346;12.372;2023-07-31T03:44:30;16.10;99.90
36374;DHT22;22399;51.346;12.372;2023-07-31T03:46:58;16.10;99.90
36374;DHT22;22399;51.346;12.372;2023-07-31T03:49:27;16.10;99.90
36374;DHT22;22399;51.346;12.372;2023-07-31T03:51:56;16.00;99.90
36374;DHT22;22399;51.346;12.372;2023-07-31T03:54:24;16.00;99.90
36374;DHT22;22399;51.346;12.372;2023-07-31T03:56:53;15.90;99.90
36374;DHT22;22399;51.346;12.372;2023-07-31T03:59:21;15.90;99.90
36374;DHT22;22399;51.346;12.372;2023-07-31T04:01:51;15.90;99.90
36374;DHT22;22399;51.346;12.372;2023-07-31T04:04:19;15.90;99.90
36374;DHT22;22399;51.346;12.372;2023-07-31T04:06:47;15.80;99.90
36374;DHT22;22399;51.346;12.372;2023-07-31T04:09:17;15.90;99.90
36374;DHT22;22399;51.346;12.372;2023-07-31T04:11:45;15.90;99.90
36374;DHT22;22399;51.346;12.372;2023-07-31T04:14:13;15.90;99.90
36374;DHT22;22399;51.346;12.372;2023-07-31T04:16:42;15.90;99.90
36374;DHT22;22399;51.346;12.372;2023-07-31T04:19:11;16.00;99.90
36374;DHT22;22399;51.346;12.372;2023-07-31T04:21:44;16.00;99.90
36374;DHT22;22399;51.346;12.372;2023-07-31T04:24:12;16.00;99.90
36374;DHT22;22399;51.346;12.372;2023-07-31T04:26:40;16.00;99.90
36374;DHT22;22399;51.346;12.372;2023-07-31T04:29:09;16.00;99.90
36374;DHT22;22399;51.346;12.372;2023-07-31T04:31:37;16.00;99.90
36374;DHT22;22399;51.346;12.372;2023-07-31T04:34:06;16.00;99.90
36374;DHT22;22399;51.346;12.372;2023-07-31T04:36:36;16.00;99.90
36374;DHT22;22399;51.346;12.372;2023-07-31T04:39:04;15.90;99.90
36374;DHT22;22399;51.346;12.372;2023-07-31T04:41:33;15.90;99.90
36374;DHT22;22399;51.346;12.372;2023-07-31T04:44:01;15.90;99.90
36374;DHT22;22399;51.346;12.372;2023-07-31T04:46:30;15.80;99.90
36374;DHT22;22399;51.346;12.372;2023-07-31T04:48:59;15.80;99.90
36374;DHT22;22399;51.346;12.372;2023-07-31T04:51:28;15.80;99.90
36374;DHT22;22399;51.346;12.372;2023-07-31T04:53:58;15.70;99.90
36374;DHT22;22399;51.346;12.372;2023-07-31T04:56:26;15.70;99.90
36374;DHT22;22399;51.346;12.372;2023-07-31T04:58:55;15.70;99.90
36374;DHT22;22399;51.346;12.372;2023-07-31T05:01:26;15.60;99.90
36374;DHT22;22399;51.346;12.372;2023-07-31T05:03:54;15.50;99.90
36374;DHT22;22399;51.346;12.372;2023-07-31T05:06:30;15.40;99.90
36374;DHT22;22399;51.346;12.372;2023-07-31T05:08:59;15.40;99.90
36374;DHT22;22399;51.346;12.372;2023-07-31T05:11:28;15.30;99.90
36374;DHT22;22399;51.346;12.372;2023-07-31T05:13:56;15.30;99.90
36374;DHT22;22399;51.346;12.372;2023-07-31T05:16:24;15.30;99.90
36374;DHT22;22399;51.346;12.372;2023-07-31T05:18:53;15.20;99.90
36374;DHT22;22399;51.346;12.372;2023-07-31T05:21:22;15.20;99.90
36374;DHT22;22399;51.346;12.372;2023-07-31T05:23:51;15.30;99.90
36374;DHT22;22399;51.346;12.372;2023-07-31T05:26:20;15.20;99.90
36374;DHT22;22399;51.346;12.372;2023-07-31T05:28:49;15.20;99.90
36374;DHT22;22399;51.346;12.372;2023-07-31T05:31:17;15.20;99.90
36374;DHT22;22399;51.346;12.372;2023-07-31T05:33:45;15.20;99.90
36374;DHT22;22399;51.346;12.372;2023-07-31T05:36:13;15.20;99.90
36374;DHT22;22399;51.346;12.372;2023-07-31T05:38:42;15.20;99.90
36374;DHT22;22399;51.346;12.372;2023-07-31T05:41:11;15.30;99.90
36374;DHT22;22399;51.346;12.372;2023-07-31T05:43:41;15.30;99.90
36374;DHT22;22399;51.346;12.372;2023-07-31T05:46:10;15.30;99.90
36374;DHT22;22399;51.346;12.372;2023-07-31T05:48:39;15.40;99.90
36374;DHT22;22399;51.346;12.372;2023-07-31T05:51:07;15.40;99.90
36374;DHT22;22399;51.346;12.372;2023-07-31T05:53:36;15.40;99.90
36374;DHT22;22399;51.346;12.372;2023-07-31T05:56:07;15.50;99.90
36374;DHT22;22399;51.346;12.372;2023-07-31T05:58:36;15.50;99.90
36374;DHT22;22399;51.346;12.372;2023-07-31T06:01:06;15.60;99.90
36374;DHT22;22399;51.346;12.372;2023-07-31T06:03:35;15.60;99.90
36374;DHT22;22399;51.346;12.372;2023-07-31T06:06:03;15.70;99.90
36374;DHT22;22399;51.346;12.372;2023-07-31T06:08:32;15.70;99.90
36374;DHT22;22399;51.346;12.372;2023-07-31T06:11:00;15.80;99.90
36374;DHT22;22399;51.346;12.372;2023-07-31T06:13:29;15.80;99.90
36374;DHT22;22399;51.346;12.372;2023-07-31T06:15:57;15.90;99.90
36374;DHT22;22399;51.346;12.372;2023-07-31T06:18:27;15.90;99.90
36374;DHT22;22399;51.346;12.372;2023-07-31T06:20:56;16.00;99.90
36374;DHT22;22399;51.346;12.372;2023-07-31T06:23:24;16.00;99.90
36374;DHT22;22399;51.346;12.372;2023-07-31T06:25:52;16.10;99.90
36374;DHT22;22399;51.346;12.372;2023-07-31T06:28:21;16.20;99.90
36374;DHT22;22399;51.346;12.372;2023-07-31T06:30:49;16.30;99.90
36374;DHT22;22399;51.346;12.372;2023-07-31T06:33:18;16.30;99.90
36374;DHT22;22399;51.346;12.372;2023-07-31T06:35:47;16.40;99.90
36374;DHT22;22399;51.346;12.372;2023-07-31T06:38:15;16.50;99.90
36374;DHT22;22399;51.346;12.372;2023-07-31T06:40:45;16.60;99.90
36374;DHT22;22399;51.346;12.372;2023-07-31T06:43:13;16.60;99.90
36374;DHT22;22399;51.346;12.372;2023-07-31T06:45:41;16.60;99.90
36374;DHT22;22399;51.346;12.372;2023-07-31T06:48:09;16.70;99.90
36374;DHT22;22399;51.346;12.372;2023-07-31T06:50:39;16.70;99.90
36374;DHT22;22399;51.346;12.372;2023-07-31T06:53:08;16.70;99.90
36374;DHT22;22399;51.346;12.372;2023-07-31T06:55:37;16.70;99.90
36374;DHT22;22399;51.346;12.372;2023-07-31T06:58:05;16.70;99.90
36374;DHT22;22399;51.346;12.372;2023-07-31T07:00:33;16.80;99.90
36374;DHT22;22399;51.346;12.372;2023-07-31T07:03:02;16.80;99.90
36374;DHT22;22399;51.346;12.372;2023-07-31T07:05:30;16.80;99.90
36374;DHT22;22399;51.346;12.372;2023-07-31T07:07:58;16.90;99.90
36374;DHT22;22399;51.346;12.372;2023-07-31T07:10:28;16.90;99.90
36374;DHT22;22399;51.346;12.372;2023-07-31T07:12:56;16.90;99.90
36374;DHT22;22399;51.346;12.372;2023-07-31T07:15:25;16.90;99.90
36374;DHT22;22399;51.346;12.372;2023-07-31T07:17:53;17.00;99.90
36374;DHT22;22399;51.346;12.372;2023-07-31T07:20:21;17.00;99.90
36374;DHT22;22399;51.346;12.372;2023-07-31T07:22:50;17.10;99.90
36374;DHT22;22399;51.346;12.372;2023-07-31T07:25:19;17.10;99.90
36374;DHT22;22399;51.346;12.372;2023-07-31T07:27:49;17.20;99.90
36374;DHT22;22399;51.346;12.372;2023-07-31T07:30:18;17.20;99.90
36374;DHT22;22399;51.346;12.372;2023-07-31T07:32:46;17.30;99.90
36374;DHT22;22399;51.346;12.372;2023-07-31T07:35:15;17.40;99.90
36374;DHT22;22399;51.346;12.372;2023-07-31T07:37:43;17.50;99.90
36374;DHT22;22399;51.346;12.372;2023-07-31T07:40:11;17.50;99.90
36374;DHT22;22399;51.346;12.372;2023-07-31T07:42:40;17.60;99.90
36374;DHT22;22399;51.346;12.372;2023-07-31T07:45:10;17.70;99.90
36374;DHT22;22399;51.346;12.372;2023-07-31T07:47:38;17.80;99.90
36374;DHT22;22399;51.346;12.372;2023-07-31T07:50:08;18.00;99.90
36374;DHT22;22399;51.346;12.372;2023-07-31T07:52:36;18.00;99.90
36374;DHT22;22399;51.346;12.372;2023-07-31T07:55:05;18.10;99.90
36374;DHT22;22399;51.346;12.372;2023-07-31T07:57:33;18.20;99.90
36374;DHT22;22399;51.346;12.372;2023-07-31T08:00:02;18.30;99.90
36374;DHT22;22399;51.346;12.372;2023-07-31T08:02:41;18.30;99.90
36374;DHT22;22399;51.346;12.372;2023-07-31T08:05:09;18.30;99.90
36374;DHT22;22399;51.346;12.372;2023-07-31T08:07:37;18.30;99.90
36374;DHT22;22399;51.346;12.372;2023-07-31T08:10:06;18.30;99.90
36374;DHT22;22399;51.346;12.372;2023-07-31T08:12:35;18.30;99.90
36374;DHT22;22399;51.346;12.372;2023-07-31T08:15:04;18.40;99.90
36374;DHT22;22399;51.346;12.372;2023-07-31T08:17:33;18.40;99.90
36374;DHT22;22399;51.346;12.372;2023-07-31T08:20:03;18.60;99.90
36374;DHT22;22399;51.346;12.372;2023-07-31T08:22:32;18.70;99.90
36374;DHT22;22399;51.346;12.372;2023-07-31T08:25:00;18.80;99.90
36374;DHT22;22399;51.346;12.372;2023-07-31T08:27:28;18.80;99.90
36374;DHT22;22399;51.346;12.372;2023-07-31T08:29:56;18.90;99.90
36374;DHT22;22399;51.346;12.372;2023-07-31T08:32:25;19.00;99.90
36374;DHT22;22399;51.346;12.372;2023-07-31T08:34:53;19.10;99.90
36374;DHT22;22399;51.346;12.372;2023-07-31T08:37:23;19.20;99.90
36374;DHT22;22399;51.346;12.372;2023-07-31T08:39:51;19.20;99.90
36374;DHT22;22399;51.346;12.372;2023-07-31T08:42:21;19.20;99.90
36374;DHT22;22399;51.346;12.372;2023-07-31T08:44:50;19.30;99.90
36374;DHT22;22399;51.346;12.372;2023-07-31T08:47:19;19.30;99.90
36374;DHT22;22399;51.346;12.372;2023-07-31T08:49:48;19.30;99.90
36374;DHT22;22399;51.346;12.372;2023-07-31T08:52:17;19.30;99.90
36374;DHT22;22399;51.346;12.372;2023-07-31T08:54:47;19.30;99.90
36374;DHT22;22399;51.346;12.372;2023-07-31T08:57:16;19.20;99.90
36374;DHT22;22399;51.346;12.372;2023-07-31T08:59:45;19.20;99.90
36374;DHT22;22399;51.346;12.372;2023-07-31T09:02:15;19.20;99.90
36374;DHT22;22399;51.346;12.372;2023-07-31T09:04:44;19.20;99.90
36374;DHT22;22399;51.346;12.372;2023-07-31T09:07:14;19.20;99.90
36374;DHT22;22399;51.346;12.372;2023-07-31T09:09:47;19.20;99.90
36374;DHT22;22399;51.346;12.372;2023-07-31T09:12:15;19.20;99.90
36374;DHT22;22399;51.346;12.372;2023-07-31T09:14:45;19.30;99.90
36374;DHT22;22399;51.346;12.372;2023-07-31T09:17:15;19.40;99.90
36374;DHT22;22399;51.346;12.372;2023-07-31T09:19:45;19.40;99.90
36374;DHT22;22399;51.346;12.372;2023-07-31T09:22:13;19.40;99.90
36374;DHT22;22399;51.346;12.372;2023-07-31T09:24:41;19.40;99.90
36374;DHT22;22399;51.346;12.372;2023-07-31T09:27:12;19.50;99.90
36374;DHT22;22399;51.346;12.372;2023-07-31T09:29:40;19.70;99.90
36374;DHT22;22399;51.346;12.372;2023-07-31T09:32:15;19.80;99.90
36374;DHT22;22399;51.346;12.372;2023-07-31T09:34:44;19.70;99.90
36374;DHT22;22399;51.346;12.372;2023-07-31T09:37:12;19.70;99.90
36374;DHT22;22399;51.346;12.372;2023-07-31T09:39:47;19.80;99.90
36374;DHT22;22399;51.346;12.372;2023-07-31T09:42:25;19.90;99.90
36374;DHT22;22399;51.346;12.372;2023-07-31T09:45:07;19.90;99.90
36374;DHT22;22399;51.346;12.372;2023-07-31T09:47:35;19.80;99.90
36374;DHT22;22399;51.346;12.372;2023-07-31T09:50:07;19.90;99.90
36374;DHT22;22399;51.346;12.372;2023-07-31T09:52:38;19.90;99.90
36374;DHT22;22399;51.346;12.372;2023-07-31T09:55:07;19.90;99.90
36374;DHT22;22399;51.346;12.372;2023-07-31T09:57:40;20.10;99.90
36374;DHT22;22399;51.346;12.372;2023-07-31T10:00:10;20.20;99.90
36374;DHT22;22399;51.346;12.372;2023-07-31T10:02:41;20.10;99.90
36374;DHT22;22399;51.346;12.372;2023-07-31T10:05:13;20.10;99.90
36374;DHT22;22399;51.346;12.372;2023-07-31T10:07:43;20.00;99.90
36374;DHT22;22399;51.346;12.372;2023-07-31T10:10:14;19.80;99.90
36374;DHT22;22399;51.346;12.372;2023-07-31T10:12:45;19.70;99.90
36374;DHT22;22399;51.346;12.372;2023-07-31T10:15:15;19.90;99.90
36374;DHT22;22399;51.346;12.372;2023-07-31T10:17:44;20.20;99.90
36374;DHT22;22399;51.346;12.372;2023-07-31T10:20:14;20.40;99.90
36374;DHT22;22399;51.346;12.372;2023-07-31T10:22:44;20.70;99.90
36374;DHT22;22399;51.346;12.372;2023-07-31T10:25:13;21.10;99.90
36374;DHT22;22399;51.346;12.372;2023-07-31T10:27:45;21.30;99.90
36374;DHT22;22399;51.346;12.372;2023-07-31T10:30:17;21.30;99.90
36374;DHT22;22399;51.346;12.372;2023-07-31T10:32:46;21.50;99.90
36374;DHT22;22399;51.346;12.372;2023-07-31T10:35:17;21.70;99.90
36374;DHT22;22399;51.346;12.372;2023-07-31T10:37:46;21.50;99.90
36374;DHT22;22399;51.346;12.372;2023-07-31T10:40:16;21.20;99.90
36374;DHT22;22399;51.346;12.372;2023-07-31T10:42:49;21.20;99.90
36374;DHT22;22399;51.346;12.372;2023-07-31T10:45:25;21.20;99.90
36374;DHT22;22399;51.346;12.372;2023-07-31T10:48:01;21.20;99.90
36374;DHT22;22399;51.346;12.372;2023-07-31T10:50:32;21.20;99.90
36374;DHT22;22399;51.346;12.372;2023-07-31T10:53:01;21.10;99.90
36374;DHT22;22399;51.346;12.372;2023-07-31T10:55:32;21.10;99.90
36374;DHT22;22399;51.346;12.372;2023-07-31T10:58:10;21.30;99.90
36374;DHT22;22399;51.346;12.372;2023-07-31T11:00:39;21.80;99.90
36374;DHT22;22399;51.346;12.372;2023-07-31T11:03:09;22.20;99.90
36374;DHT22;22399;51.346;12.372;2023-07-31T11:05:47;22.20;99.90
36374;DHT22;22399;51.346;12.372;2023-07-31T11:08:18;22.10;99.90
36374;DHT22;22399;51.346;12.372;2023-07-31T11:10:48;22.00;99.30
36374;DHT22;22399;51.346;12.372;2023-07-31T11:13:19;21.90;98.60
36374;DHT22;22399;51.346;12.372;2023-07-31T11:15:48;22.10;98.60
36374;DHT22;22399;51.346;12.372;2023-07-31T11:18:16;22.40;98.50
36374;DHT22;22399;51.346;12.372;2023-07-31T11:20:45;22.80;96.80
36374;DHT22;22399;51.346;12.372;2023-07-31T11:23:16;23.00;96.10
36374;DHT22;22399;51.346;12.372;2023-07-31T11:25:45;23.30;95.90
36374;DHT22;22399;51.346;12.372;2023-07-31T11:28:15;23.50;95.30
36374;DHT22;22399;51.346;12.372;2023-07-31T11:30:45;23.40;93.20
36374;DHT22;22399;51.346;12.372;2023-07-31T11:33:14;23.30;94.00
36374;DHT22;22399;51.346;12.372;2023-07-31T11:35:44;23.10;93.50
36374;DHT22;22399;51.346;12.372;2023-07-31T11:38:21;23.00;93.20
36374;DHT22;22399;51.346;12.372;2023-07-31T11:40:51;23.10;93.10
36374;DHT22;22399;51.346;12.372;2023-07-31T11:43:20;23.30;93.10
36374;DHT22;22399;51.346;12.372;2023-07-31T11:45:51;23.30;92.70
36374;DHT22;22399;51.346;12.372;2023-07-31T11:48:21;23.40;93.20
36374;DHT22;22399;51.346;12.372;2023-07-31T11:50:50;23.20;92.10
36374;DHT22;22399;51.346;12.372;2023-07-31T11:53:22;23.10;92.50
36374;DHT22;22399;51.346;12.372;2023-07-31T11:55:52;22.90;92.50
36374;DHT22;22399;51.346;12.372;2023-07-31T11:58:21;22.80;92.30
36374;DHT22;22399;51.346;12.372;2023-07-31T12:00:52;22.70;92.40
36374;DHT22;22399;51.346;12.372;2023-07-31T12:03:21;22.60;92.00
36374;DHT22;22399;51.346;12.372;2023-07-31T12:05:49;22.60;91.70
36374;DHT22;22399;51.346;12.372;2023-07-31T12:08:21;22.40;91.80
36374;DHT22;22399;51.346;12.372;2023-07-31T12:10:51;22.30;92.90
36374;DHT22;22399;51.346;12.372;2023-07-31T12:13:21;22.00;93.00
36374;DHT22;22399;51.346;12.372;2023-07-31T12:15:54;21.90;94.50
36374;DHT22;22399;51.346;12.372;2023-07-31T12:18:27;21.90;93.80
36374;DHT22;22399;51.346;12.372;2023-07-31T12:20:57;22.10;93.40
36374;DHT22;22399;51.346;12.372;2023-07-31T12:23:27;22.30;93.10
36374;DHT22;22399;51.346;12.372;2023-07-31T12:26:02;22.30;92.50
36374;DHT22;22399;51.346;12.372;2023-07-31T12:28:35;22.50;92.80
36374;DHT22;22399;51.346;12.372;2023-07-31T12:31:05;22.70;92.40
36374;DHT22;22399;51.346;12.372;2023-07-31T12:33:35;22.80;91.40
36374;DHT22;22399;51.346;12.372;2023-07-31T12:36:07;22.90;90.90
36374;DHT22;22399;51.346;12.372;2023-07-31T12:38:35;22.90;91.20
36374;DHT22;22399;51.346;12.372;2023-07-31T12:41:04;23.00;90.80
36374;DHT22;22399;51.346;12.372;2023-07-31T12:43:34;23.10;90.50
36374;DHT22;22399;51.346;12.372;2023-07-31T12:46:02;23.10;91.00
36374;DHT22;22399;51.346;12.372;2023-07-31T12:48:32;23.00;90.90
36374;DHT22;22399;51.346;12.372;2023-07-31T12:51:01;23.00;91.20
36374;DHT22;22399;51.346;12.372;2023-07-31T12:53:30;23.00;91.00
36374;DHT22;22399;51.346;12.372;2023-07-31T12:55:59;23.20;90.90
36374;DHT22;22399;51.346;12.372;2023-07-31T12:58:28;23.40;90.00
36374;DHT22;22399;51.346;12.372;2023-07-31T13:00:56;23.30;89.90
36374;DHT22;22399;51.346;12.372;2023-07-31T13:03:24;23.40;89.70
36374;DHT22;22399;51.346;12.372;2023-07-31T13:05:54;23.80;90.10
36374;DHT22;22399;51.346;12.372;2023-07-31T13:08:23;24.40;88.20
36374;DHT22;22399;51.346;12.372;2023-07-31T13:10:51;24.30;86.60
36374;DHT22;22399;51.346;12.372;2023-07-31T13:13:20;24.70;87.50
36374;DHT22;22399;51.346;12.372;2023-07-31T13:15:49;25.50;85.70
36374;DHT22;22399;51.346;12.372;2023-07-31T13:18:17;25.80;84.80
36374;DHT22;22399;51.346;12.372;2023-07-31T13:20:46;25.80;84.30
36374;DHT22;22399;51.346;12.372;2023-07-31T13:23:16;25.50;83.70
36374;DHT22;22399;51.346;12.372;2023-07-31T13:25:44;25.30;85.50
36374;DHT22;22399;51.346;12.372;2023-07-31T13:28:13;25.10;85.30
36374;DHT22;22399;51.346;12.372;2023-07-31T13:30:41;25.70;83.80
36374;DHT22;22399;51.346;12.372;2023-07-31T13:33:09;25.50;81.20
36374;DHT22;22399;51.346;12.372;2023-07-31T13:35:55;25.30;81.40
36374;DHT22;22399;51.346;12.372;2023-07-31T13:38:25;25.40;79.70
36374;DHT22;22399;51.346;12.372;2023-07-31T13:40:53;25.40;78.60
36374;DHT22;22399;51.346;12.372;2023-07-31T13:43:23;25.50;77.50
36374;DHT22;22399;51.346;12.372;2023-07-31T13:45:52;25.10;77.20
36374;DHT22;22399;51.346;12.372;2023-07-31T13:48:20;24.80;77.50
36374;DHT22;22399;51.346;12.372;2023-07-31T13:50:48;24.70;78.70
36374;DHT22;22399;51.346;12.372;2023-07-31T13:53:17;24.70;79.00
36374;DHT22;22399;51.346;12.372;2023-07-31T13:55:46;24.40;79.90
36374;DHT22;22399;51.346;12.372;2023-07-31T13:58:17;24.20;81.20
36374;DHT22;22399;51.346;12.372;2023-07-31T14:00:45;24.10;81.60
36374;DHT22;22399;51.346;12.372;2023-07-31T14:03:13;23.90;81.90
36374;DHT22;22399;51.346;12.372;2023-07-31T14:05:42;23.60;81.10
36374;DHT22;22399;51.346;12.372;2023-07-31T14:08:10;23.30;81.40
36374;DHT22;22399;51.346;12.372;2023-07-31T14:10:38;23.10;82.70
36374;DHT22;22399;51.346;12.372;2023-07-31T14:13:09;23.00;83.90
36374;DHT22;22399;51.346;12.372;2023-07-31T14:15:37;22.80;83.60
36374;DHT22;22399;51.346;12.372;2023-07-31T14:18:05;22.60;83.40
36374;DHT22;22399;51.346;12.372;2023-07-31T14:20:34;22.50;84.20
36374;DHT22;22399;51.346;12.372;2023-07-31T14:23:02;22.50;84.50
36374;DHT22;22399;51.346;12.372;2023-07-31T14:25:31;22.40;84.40
36374;DHT22;22399;51.346;12.372;2023-07-31T14:27:59;22.30;84.10
36374;DHT22;22399;51.346;12.372;2023-07-31T14:30:29;22.40;85.00
36374;DHT22;22399;51.346;12.372;2023-07-31T14:32:58;22.50;85.50
36374;DHT22;22399;51.346;12.372;2023-07-31T14:35:27;22.50;85.30
36374;DHT22;22399;51.346;12.372;2023-07-31T14:37:56;22.50;84.40
36374;DHT22;22399;51.346;12.372;2023-07-31T14:40:25;22.70;84.70
36374;DHT22;22399;51.346;12.372;2023-07-31T14:42:53;22.90;84.80
36374;DHT22;22399;51.346;12.372;2023-07-31T14:45:22;23.10;84.70
36374;DHT22;22399;51.346;12.372;2023-07-31T14:47:51;23.20;83.70
36374;DHT22;22399;51.346;12.372;2023-07-31T14:50:20;23.10;83.70
36374;DHT22;22399;51.346;12.372;2023-07-31T14:52:50;22.90;84.20
36374;DHT22;22399;51.346;12.372;2023-07-31T14:55:19;22.90;84.90
36374;DHT22;22399;51.346;12.372;2023-07-31T14:57:48;22.90;85.10
36374;DHT22;22399;51.346;12.372;2023-07-31T15:00:16;22.80;85.20
36374;DHT22;22399;51.346;12.372;2023-07-31T15:02:45;22.70;85.70
36374;DHT22;22399;51.346;12.372;2023-07-31T15:05:15;22.60;86.10
36374;DHT22;22399;51.346;12.372;2023-07-31T15:07:43;22.50;86.00
36374;DHT22;22399;51.346;12.372;2023-07-31T15:10:12;22.50;86.20
36374;DHT22;22399;51.346;12.372;2023-07-31T15:12:41;22.50;86.20
36374;DHT22;22399;51.346;12.372;2023-07-31T15:15:11;22.60;86.30
36374;DHT22;22399;51.346;12.372;2023-07-31T15:17:39;22.60;86.70
36374;DHT22;22399;51.346;12.372;2023-07-31T15:20:09;22.70;87.00
36374;DHT22;22399;51.346;12.372;2023-07-31T15:22:39;22.70;87.30
36374;DHT22;22399;51.346;12.372;2023-07-31T15:25:08;22.70;87.10
36374;DHT22;22399;51.346;12.372;2023-07-31T15:27:36;22.70;86.90